createdAt,value
2018-08-10T00:00:12.732Z,9.03
2018-08-10T00:02:40.934Z,10.87
2018-08-10T00:05:09.731Z,11.22
2018-08-10T00:07:38.098Z,10.48
2018-08-10T00:10:07.767Z,9.87
2018-08-10T00:12:35.854Z,8.53
2018-08-10T00:15:04.764Z,9.47
2018-08-10T00:17:32.818Z,10.77
2018-08-10T00:20:00.906Z,7.90
2018-08-10T00:22:28.982Z,7.63
2018-08-10T00:24:57.089Z,8.60
2018-08-10T00:27:25.138Z,7.77
2018-08-10T00:29:53.210Z,5.50
2018-08-10T00:32:21.289Z,9.07
2018-08-10T00:34:49.363Z,8.03
2018-08-10T00:37:17.460Z,7.00
2018-08-10T00:39:45.520Z,7.47
2018-08-10T00:42:13.618Z,11.03
2018-08-10T00:44:41.702Z,7.00
2018-08-10T00:47:09.775Z,8.23
2018-08-10T00:49:37.885Z,6.03
2018-08-10T00:52:06.061Z,10.85
2018-08-10T00:54:34.147Z,7.67
2018-08-10T00:57:02.218Z,6.47
2018-08-10T00:59:30.290Z,7.67
2018-08-10T01:01:58.365Z,7.97
2018-08-10T01:04:26.452Z,6.17
2018-08-10T01:06:54.526Z,9.03
2018-08-10T01:09:22.574Z,7.03
2018-08-10T01:11:50.665Z,4.67
2018-08-10T01:14:18.745Z,7.47
2018-08-10T01:16:46.819Z,10.30
2018-08-10T01:19:14.921Z,6.90
2018-08-10T01:21:42.979Z,6.53
2018-08-10T01:24:11.197Z,5.50
2018-08-10T01:26:39.353Z,5.27
2018-08-10T01:29:07.418Z,6.83
2018-08-10T01:31:35.475Z,5.30
2018-08-10T01:34:03.584Z,7.10
2018-08-10T01:36:31.650Z,5.03
2018-08-10T01:38:59.722Z,6.90
2018-08-10T01:41:27.782Z,8.97
2018-08-10T01:43:55.954Z,8.50
2018-08-10T01:46:24.020Z,3.70
2018-08-10T01:48:52.162Z,5.33
2018-08-10T01:51:20.226Z,7.87
2018-08-10T01:53:48.298Z,5.83
2018-08-10T01:56:16.361Z,12.27
2018-08-10T01:58:44.407Z,5.97
2018-08-10T02:01:12.507Z,5.87
2018-08-10T02:03:40.606Z,6.87
2018-08-10T02:06:08.688Z,11.43
2018-08-10T02:08:36.754Z,6.03
2018-08-10T02:11:04.839Z,9.33
2018-08-10T02:13:32.898Z,8.03
2018-08-10T02:16:00.970Z,8.77
2018-08-10T02:18:29.043Z,8.77
2018-08-10T02:20:57.114Z,8.97
2018-08-10T02:23:25.183Z,7.20
2018-08-10T02:25:53.245Z,11.90
2018-08-10T02:28:21.326Z,9.88
2018-08-10T02:30:49.392Z,10.83
2018-08-10T02:33:17.470Z,9.25
2018-08-10T02:35:45.536Z,6.50
2018-08-10T02:38:13.687Z,9.30
2018-08-10T02:40:41.918Z,9.00
2018-08-10T02:43:09.962Z,6.33
2018-08-10T02:45:38.058Z,8.53
2018-08-10T02:48:06.220Z,6.83
2018-08-10T02:50:34.300Z,7.43
2018-08-10T02:53:02.358Z,9.63
2018-08-10T02:55:30.476Z,7.03
2018-08-10T02:57:58.530Z,7.13
2018-08-10T03:00:26.599Z,11.37
2018-08-10T03:02:54.650Z,8.67
2018-08-10T03:05:22.742Z,11.43
2018-08-10T03:07:50.805Z,5.23
2018-08-10T03:10:18.858Z,8.77
2018-08-10T03:12:46.931Z,9.33
2018-08-10T03:15:16.274Z,8.57
2018-08-10T03:17:44.767Z,4.77
2018-08-10T03:20:12.893Z,9.10
2018-08-10T03:22:41.403Z,5.90
2018-08-10T03:25:10.826Z,9.30
2018-08-10T03:27:39.086Z,14.40
2018-08-10T03:30:08.683Z,7.30
2018-08-10T03:32:36.830Z,6.90
2018-08-10T03:35:04.916Z,4.80
2018-08-10T03:37:33.038Z,6.93
2018-08-10T03:40:01.104Z,9.23
2018-08-10T03:42:29.475Z,5.73
2018-08-10T03:44:57.526Z,7.77
2018-08-10T03:47:25.590Z,10.60
2018-08-10T03:49:53.755Z,8.43
2018-08-10T03:52:21.770Z,8.13
2018-08-10T03:54:49.834Z,10.73
2018-08-10T03:57:17.901Z,8.60
2018-08-10T03:59:45.953Z,10.83
2018-08-10T04:02:14.035Z,7.33
2018-08-10T04:04:42.083Z,9.37
2018-08-10T04:07:10.178Z,11.67
2018-08-10T04:09:38.338Z,12.93
2018-08-10T04:12:06.777Z,11.80
2018-08-10T04:14:34.846Z,15.03
2018-08-10T04:17:02.935Z,18.90
2018-08-10T04:19:31.113Z,17.23
2018-08-10T04:21:59.191Z,21.87
2018-08-10T04:24:27.256Z,15.43
2018-08-10T04:26:55.348Z,19.30
2018-08-10T04:29:23.434Z,23.77
2018-08-10T04:31:51.729Z,19.73
2018-08-10T04:34:19.823Z,29.67
2018-08-10T04:36:47.886Z,17.63
2018-08-10T04:39:16.100Z,23.13
2018-08-10T04:41:44.146Z,17.80
2018-08-10T04:44:12.342Z,23.07
2018-08-10T04:46:40.430Z,25.53
2018-08-10T04:49:08.766Z,21.50
2018-08-10T04:51:36.870Z,26.60
2018-08-10T04:54:04.922Z,22.00
2018-08-10T04:56:32.997Z,21.47
2018-08-10T04:59:01.160Z,27.17
2018-08-10T05:01:29.214Z,22.27
2018-08-10T05:03:57.315Z,23.70
2018-08-10T05:06:25.554Z,25.87
2018-08-10T05:08:53.626Z,23.63
2018-08-10T05:11:21.711Z,22.23
2018-08-10T05:13:49.778Z,23.17
2018-08-10T05:16:17.878Z,18.70
2018-08-10T05:18:45.990Z,20.93
2018-08-10T05:21:14.099Z,20.87
2018-08-10T05:23:42.163Z,19.00
2018-08-10T05:26:10.273Z,17.00
2018-08-10T05:28:38.461Z,19.97
2018-08-10T05:31:06.518Z,17.92
2018-08-10T05:33:34.623Z,16.33
2018-08-10T05:36:02.690Z,13.77
2018-08-10T05:38:30.759Z,15.13
2018-08-10T05:40:58.837Z,18.27
2018-08-10T05:43:27.003Z,13.00
2018-08-10T05:45:55.183Z,16.70
2018-08-10T05:48:23.274Z,15.60
2018-08-10T05:50:51.345Z,15.03
2018-08-10T05:53:19.422Z,13.30
2018-08-10T05:55:47.490Z,16.63
2018-08-10T05:58:15.576Z,18.03
2018-08-10T06:00:43.718Z,15.57
2018-08-10T06:03:11.800Z,17.13
2018-08-10T06:05:39.847Z,15.47
2018-08-10T06:08:07.919Z,14.10
2018-08-10T06:10:36.003Z,18.77
2018-08-10T06:13:04.121Z,17.70
2018-08-10T06:15:32.230Z,20.40
2018-08-10T06:18:00.323Z,21.47
2018-08-10T06:20:28.395Z,23.80
2018-08-10T06:22:56.510Z,28.27
2018-08-10T06:25:24.560Z,19.30
2018-08-10T06:27:52.770Z,18.17
2018-08-10T06:30:20.794Z,22.98
2018-08-10T06:32:48.887Z,25.67
2018-08-10T06:35:16.953Z,24.80
2018-08-10T06:37:45.023Z,27.07
2018-08-10T06:40:13.087Z,29.67
2018-08-10T06:42:41.166Z,29.63
2018-08-10T06:45:09.259Z,28.63
2018-08-10T06:47:37.670Z,35.60
2018-08-10T06:50:05.962Z,29.37
2018-08-10T06:52:34.003Z,27.70
2018-08-10T06:55:02.514Z,28.67
2018-08-10T06:57:30.587Z,25.17
2018-08-10T06:59:58.657Z,25.50
2018-08-10T07:02:26.729Z,23.73
2018-08-10T07:04:54.835Z,25.63
2018-08-10T07:07:23.001Z,25.57
2018-08-10T07:09:51.002Z,25.80
2018-08-10T07:12:19.129Z,23.97
2018-08-10T07:14:47.186Z,21.67
2018-08-10T07:17:15.278Z,25.30
2018-08-10T07:19:43.362Z,22.35
2018-08-10T07:22:11.444Z,20.02
2018-08-10T07:24:39.605Z,19.47
2018-08-10T07:27:07.765Z,21.27
2018-08-10T07:29:35.755Z,21.50
2018-08-10T07:32:03.840Z,17.80
2018-08-10T07:35:00.410Z,20.47
2018-08-10T07:37:28.513Z,17.17
2018-08-10T07:39:56.602Z,15.60
2018-08-10T07:42:24.674Z,15.50
2018-08-10T07:44:52.746Z,16.37
2018-08-10T07:47:20.834Z,16.63
2018-08-10T07:49:48.927Z,13.67
2018-08-10T07:52:17.074Z,8.33
2018-08-10T07:54:45.138Z,12.40
2018-08-10T07:57:13.234Z,10.23
2018-08-10T07:59:41.293Z,11.40
2018-08-10T08:02:09.487Z,9.73
2018-08-10T08:04:37.558Z,12.13
2018-08-10T08:07:05.726Z,13.40
2018-08-10T08:09:33.779Z,14.57
2018-08-10T08:12:01.892Z,12.70
2018-08-10T08:14:30.053Z,11.63
2018-08-10T08:16:58.562Z,13.10
2018-08-10T08:19:26.694Z,12.23
2018-08-10T08:22:26.779Z,12.25
2018-08-10T08:24:54.895Z,8.67
2018-08-10T08:27:23.033Z,11.90
2018-08-10T08:29:51.154Z,14.40
2018-08-10T08:32:19.283Z,9.47
2018-08-10T08:34:47.417Z,9.03
2018-08-10T08:37:15.544Z,8.10
2018-08-10T08:40:21.072Z,11.80
2018-08-10T08:42:49.806Z,8.43
2018-08-10T08:45:38.605Z,16.03
2018-08-10T08:48:07.307Z,12.77
2018-08-10T08:50:36.762Z,5.87
2018-08-10T08:53:05.286Z,21.57
2018-08-10T08:55:35.452Z,11.47
2018-08-10T08:58:03.840Z,9.40
2018-08-10T09:00:32.087Z,9.07
2018-08-10T09:03:00.828Z,14.13
2018-08-10T09:05:28.947Z,6.23
2018-08-10T09:07:57.178Z,9.33
2018-08-10T09:10:25.370Z,9.27
2018-08-10T09:12:53.591Z,10.67
2018-08-10T09:15:22.491Z,7.53
2018-08-10T09:17:50.627Z,9.53
2018-08-10T09:20:18.995Z,9.67
2018-08-10T09:22:47.021Z,11.33
2018-08-10T09:25:16.950Z,7.93
2018-08-10T09:27:45.051Z,7.70
2018-08-10T09:30:16.040Z,9.53
2018-08-10T09:32:45.023Z,10.43
2018-08-10T09:35:13.708Z,8.90
2018-08-10T09:37:41.986Z,9.60
2018-08-10T09:40:16.614Z,9.03
2018-08-10T09:42:45.294Z,4.87
2018-08-10T09:45:14.746Z,10.88
2018-08-10T09:47:43.773Z,7.93
2018-08-10T09:50:12.766Z,8.17
2018-08-10T09:52:42.371Z,8.58
2018-08-10T09:55:13.941Z,7.70
2018-08-10T09:57:42.635Z,7.92
2018-08-10T10:00:14.974Z,8.20
2018-08-10T10:02:47.350Z,7.72
2018-08-10T10:05:15.879Z,7.72
2018-08-10T10:07:44.871Z,5.25
2018-08-10T10:10:13.050Z,8.65
2018-08-10T10:12:41.207Z,4.65
2018-08-10T10:15:09.349Z,11.12
2018-08-10T10:17:37.815Z,8.20
2018-08-10T10:20:06.680Z,7.35
2018-08-10T10:22:34.791Z,7.85
2018-08-10T10:25:02.923Z,7.78
2018-08-10T10:27:31.810Z,6.28
2018-08-10T10:30:00.011Z,8.45
2018-08-10T10:32:28.497Z,8.25
2018-08-10T10:34:56.595Z,5.58
2018-08-10T10:37:24.762Z,8.20
2018-08-10T10:39:52.838Z,12.23
2018-08-10T10:42:21.553Z,8.33
2018-08-10T10:44:50.130Z,12.73
2018-08-10T10:47:18.316Z,6.47
2018-08-10T10:49:47.078Z,10.15
2018-08-10T10:52:16.662Z,7.15
2018-08-10T10:54:44.763Z,6.47
2018-08-10T10:57:12.805Z,8.68
2018-08-10T10:59:40.941Z,7.22
2018-08-10T11:02:09.008Z,12.40
2018-08-10T11:04:37.089Z,6.60
2018-08-10T11:07:05.159Z,6.40
2018-08-10T11:09:33.257Z,6.55
2018-08-10T11:12:01.431Z,8.00
2018-08-10T11:14:29.513Z,7.62
2018-08-10T11:16:57.677Z,6.72
2018-08-10T11:19:25.766Z,6.17
2018-08-10T11:21:53.844Z,6.60
2018-08-10T11:24:21.925Z,6.47
2018-08-10T11:26:50.065Z,8.78
2018-08-10T11:29:18.179Z,5.58
2018-08-10T11:31:46.283Z,6.35
2018-08-10T11:34:14.408Z,7.20
2018-08-10T11:36:42.524Z,4.62
2018-08-10T11:39:12.105Z,4.97
2018-08-10T11:41:40.325Z,6.65
2018-08-10T11:44:09.059Z,3.47
2018-08-10T11:46:37.184Z,5.70
2018-08-10T11:49:06.675Z,2.47
2018-08-10T11:51:34.853Z,4.70
2018-08-10T11:54:03.363Z,2.98
2018-08-10T11:56:31.442Z,4.85
2018-08-10T11:58:59.575Z,2.00
2018-08-10T12:01:27.666Z,6.37
2018-08-10T12:03:55.747Z,4.30
2018-08-10T12:06:23.868Z,3.12
2018-08-10T12:08:51.962Z,2.27
2018-08-10T12:11:20.095Z,3.47
2018-08-10T12:13:48.228Z,4.22
2018-08-10T12:16:16.331Z,3.67
2018-08-10T12:18:44.410Z,4.60
2018-08-10T12:21:12.974Z,4.53
2018-08-10T12:23:41.058Z,3.37
2018-08-10T12:26:09.130Z,2.83
2018-08-10T12:28:37.456Z,2.98
2018-08-10T12:31:05.638Z,7.08
2018-08-10T12:33:33.711Z,7.97
2018-08-10T12:36:02.052Z,4.55
2018-08-10T12:38:30.074Z,4.83
2018-08-10T12:40:58.157Z,2.72
2018-08-10T12:43:26.220Z,3.83
2018-08-10T12:45:54.310Z,5.67
2018-08-10T12:48:22.412Z,3.80
2018-08-10T12:50:50.556Z,4.50
2018-08-10T12:53:18.691Z,7.22
2018-08-10T12:55:46.793Z,7.17
2018-08-10T12:58:14.898Z,5.53
2018-08-10T13:00:42.985Z,7.17
2018-08-10T13:03:11.075Z,6.17
2018-08-10T13:05:39.184Z,4.45
2018-08-10T13:08:07.274Z,3.50
2018-08-10T13:10:35.458Z,8.60
2018-08-10T13:13:03.506Z,4.15
2018-08-10T13:15:31.598Z,4.62
2018-08-10T13:17:59.722Z,2.15
2018-08-10T13:20:27.866Z,2.83
2018-08-10T13:22:55.930Z,7.40
2018-08-10T13:25:24.049Z,4.40
2018-08-10T13:27:52.150Z,2.45
2018-08-10T13:30:20.287Z,3.85
2018-08-10T13:32:48.393Z,3.92
2018-08-10T13:35:16.466Z,3.90
2018-08-10T13:37:44.564Z,3.00
2018-08-10T13:40:12.691Z,11.38
2018-08-10T13:42:40.783Z,7.12
2018-08-10T13:45:10.699Z,3.62
2018-08-10T13:47:38.774Z,3.40
2018-08-10T13:50:08.518Z,4.37
2018-08-10T13:52:40.397Z,5.75
2018-08-10T13:55:10.458Z,5.25
2018-08-10T13:57:38.602Z,5.70
2018-08-10T14:00:06.738Z,3.25
2018-08-10T14:02:34.846Z,4.65
2018-08-10T14:05:02.931Z,2.90
2018-08-10T14:07:31.054Z,6.05
2018-08-10T14:09:59.146Z,4.12
2018-08-10T14:12:27.211Z,4.35
2018-08-10T14:14:55.290Z,4.35
2018-08-10T14:17:23.403Z,3.40
2018-08-10T14:19:51.523Z,5.80
2018-08-10T14:22:19.642Z,4.47
2018-08-10T14:24:47.734Z,6.00
2018-08-10T14:27:15.835Z,3.30
2018-08-10T14:29:44.002Z,3.77
2018-08-10T14:32:12.280Z,3.70
2018-08-10T14:34:40.430Z,5.67
2018-08-10T14:37:08.494Z,2.15
2018-08-10T14:39:36.593Z,4.33
2018-08-10T14:42:04.713Z,3.83
2018-08-10T14:44:32.797Z,2.60
2018-08-10T14:47:01.008Z,3.40
2018-08-10T14:49:28.934Z,5.72
2018-08-10T14:51:57.098Z,5.35
2018-08-10T14:54:25.224Z,6.72
2018-08-10T14:56:53.597Z,3.95
2018-08-10T14:59:21.808Z,6.30
2018-08-10T15:01:49.899Z,2.02
2018-08-10T15:04:18.014Z,4.10
2018-08-10T15:06:46.151Z,2.62
2018-08-10T15:09:14.436Z,2.60
2018-08-10T15:11:43.389Z,3.30
2018-08-10T15:14:11.506Z,1.65
2018-08-10T15:16:40.294Z,5.08
2018-08-10T15:19:08.430Z,2.12
2018-08-10T15:21:36.514Z,4.37
2018-08-10T15:24:04.606Z,1.72
2018-08-10T15:26:32.941Z,2.25
2018-08-10T15:29:01.026Z,6.10
2018-08-10T15:31:29.115Z,1.15
2018-08-10T15:33:57.195Z,2.52
2018-08-10T15:36:25.366Z,4.75
2018-08-10T15:38:53.470Z,2.33
2018-08-10T15:41:21.600Z,1.77
2018-08-10T15:43:50.566Z,1.75
2018-08-10T15:46:18.649Z,3.27
2018-08-10T15:48:47.150Z,4.47
2018-08-10T15:51:15.268Z,1.70
2018-08-10T15:53:43.362Z,4.90
2018-08-10T15:56:12.389Z,3.30
2018-08-10T15:58:40.575Z,2.42
2018-08-10T16:01:08.752Z,2.92
2018-08-10T16:03:36.810Z,3.42
2018-08-10T16:06:06.094Z,3.15
2018-08-10T16:08:34.256Z,2.35
2018-08-10T16:11:07.830Z,6.47
2018-08-10T16:13:35.945Z,3.05
2018-08-10T16:16:04.028Z,5.45
2018-08-10T16:18:32.187Z,3.80
2018-08-10T16:21:00.376Z,3.60
2018-08-10T16:23:28.467Z,3.80
2018-08-10T16:25:56.605Z,4.55
2018-08-10T16:28:24.801Z,2.40
2018-08-10T16:30:52.768Z,3.00
2018-08-10T16:33:20.999Z,4.72
2018-08-10T16:35:49.106Z,2.30
2018-08-10T16:38:17.186Z,4.53
2018-08-10T16:40:45.258Z,3.25
2018-08-10T16:43:13.354Z,4.67
2018-08-10T16:45:41.414Z,4.25
2018-08-10T16:48:09.494Z,4.37
2018-08-10T16:50:37.628Z,4.40
2018-08-10T16:53:05.742Z,4.30
2018-08-10T16:55:33.830Z,2.45
2018-08-10T16:58:01.955Z,3.22
2018-08-10T17:00:30.300Z,4.62
2018-08-10T17:02:58.469Z,3.52
2018-08-10T17:05:26.742Z,4.58
2018-08-10T17:07:54.835Z,5.97
2018-08-10T17:10:23.002Z,4.87
2018-08-10T17:12:51.211Z,5.22
2018-08-10T17:15:20.218Z,4.80
2018-08-10T17:17:48.798Z,4.05
2018-08-10T17:20:17.904Z,5.53
2018-08-10T17:22:46.178Z,5.55
2018-08-10T17:25:16.874Z,3.22
2018-08-10T17:27:45.645Z,3.83
2018-08-10T17:30:14.806Z,6.70
2018-08-10T17:32:42.966Z,1.32
2018-08-10T17:35:12.702Z,2.80
2018-08-10T17:37:42.056Z,3.80
2018-08-10T17:40:10.585Z,3.17
2018-08-10T17:42:39.286Z,3.45
2018-08-10T17:45:11.382Z,2.95
2018-08-10T17:47:41.193Z,5.42
2018-08-10T17:50:12.291Z,5.25
2018-08-10T17:52:42.954Z,3.75
2018-08-10T17:55:11.299Z,3.00
2018-08-10T17:57:39.566Z,2.60
2018-08-10T18:00:10.143Z,2.27
2018-08-10T18:02:39.066Z,3.40
2018-08-10T18:05:10.983Z,1.07
2018-08-10T18:07:41.002Z,3.60
2018-08-10T18:10:10.004Z,2.27
2018-08-10T18:12:39.711Z,2.92
2018-08-10T18:15:10.087Z,3.65
2018-08-10T18:17:39.407Z,4.80
2018-08-10T18:20:12.222Z,5.35
2018-08-10T18:22:40.286Z,1.67
2018-08-10T18:25:09.760Z,1.22
2018-08-10T18:27:37.934Z,3.37
2018-08-10T18:30:09.521Z,2.10
2018-08-10T18:32:37.814Z,4.03
2018-08-10T18:35:06.555Z,6.50
2018-08-10T18:37:34.642Z,5.47
2018-08-10T18:40:02.978Z,5.42
2018-08-10T18:42:31.080Z,7.62
2018-08-10T18:44:59.222Z,3.12
2018-08-10T18:47:27.292Z,5.92
2018-08-10T18:49:55.598Z,4.10
2018-08-10T18:52:23.688Z,4.10
2018-08-10T18:54:51.781Z,2.60
2018-08-10T18:57:19.906Z,4.60
2018-08-10T18:59:48.201Z,1.82
2018-08-10T19:02:16.279Z,5.25
2018-08-10T19:04:44.358Z,2.33
2018-08-10T19:07:12.480Z,5.17
2018-08-10T19:09:40.691Z,7.03
2018-08-10T19:12:08.844Z,3.07
2018-08-10T19:14:36.837Z,3.03
2018-08-10T19:17:04.927Z,2.70
2018-08-10T19:19:32.991Z,3.77
2018-08-10T19:22:01.234Z,4.20
2018-08-10T19:24:29.298Z,4.47
2018-08-10T19:26:57.387Z,3.83
2018-08-10T19:29:25.670Z,2.27
2018-08-10T19:31:53.814Z,3.87
2018-08-10T19:34:21.903Z,5.30
2018-08-10T19:36:50.103Z,10.30
2018-08-10T19:39:18.228Z,10.87
2018-08-10T19:41:46.307Z,5.50
2018-08-10T19:44:14.406Z,6.60
2018-08-10T19:46:42.539Z,6.73
2018-08-10T19:49:10.575Z,5.50
2018-08-10T19:51:38.691Z,4.10
2018-08-10T19:54:06.798Z,5.30
2018-08-10T19:56:34.895Z,6.70
2018-08-10T19:59:03.020Z,5.53
2018-08-10T20:01:31.103Z,5.17
2018-08-10T20:03:59.214Z,6.97
2018-08-10T20:06:27.299Z,4.33
2018-08-10T20:08:55.362Z,6.17
2018-08-10T20:11:23.472Z,4.47
2018-08-10T20:13:51.665Z,4.47
2018-08-10T20:16:19.813Z,7.83
2018-08-10T20:18:47.922Z,11.17
2018-08-10T20:21:16.022Z,8.80
2018-08-10T20:23:44.110Z,6.40
2018-08-10T20:26:12.184Z,5.20
2018-08-10T20:28:40.286Z,4.70
2018-08-10T20:31:08.358Z,5.33
2018-08-10T20:33:36.563Z,4.13
2018-08-10T20:36:04.630Z,7.70
2018-08-10T20:38:32.690Z,5.53
2018-08-10T20:41:00.766Z,4.23
2018-08-10T20:43:28.879Z,4.20
2018-08-10T20:45:56.930Z,7.03
2018-08-10T20:48:25.339Z,4.47
2018-08-10T20:50:53.427Z,5.40
2018-08-10T20:53:21.538Z,6.57
2018-08-10T20:55:49.748Z,3.93
2018-08-10T20:58:17.755Z,6.10
2018-08-10T21:00:45.907Z,3.70
2018-08-10T21:03:14.003Z,6.77
2018-08-10T21:05:42.150Z,7.13
2018-08-10T21:08:10.430Z,7.13
2018-08-10T21:10:38.686Z,5.93
2018-08-10T21:13:06.850Z,5.27
2018-08-10T21:15:35.289Z,7.07
2018-08-10T21:18:03.372Z,11.43
2018-08-10T21:20:31.488Z,9.97
2018-08-10T21:22:59.604Z,6.20
2018-08-10T21:25:27.732Z,6.07
2018-08-10T21:27:55.820Z,7.60
2018-08-10T21:30:23.935Z,8.47
2018-08-10T21:32:52.030Z,6.80
2018-08-10T21:35:20.098Z,7.27
2018-08-10T21:37:48.372Z,11.20
2018-08-10T21:40:16.275Z,6.95
2018-08-10T21:42:46.553Z,8.07
2018-08-10T21:45:14.916Z,6.77
2018-08-10T21:47:43.009Z,9.47
2018-08-10T21:50:12.947Z,5.90
2018-08-10T21:52:42.416Z,7.43
2018-08-10T21:55:10.995Z,5.07
2018-08-10T21:57:40.115Z,11.13
2018-08-10T22:00:58.795Z,9.00
2018-08-10T22:03:26.998Z,6.73
2018-08-10T22:05:55.356Z,5.17
2018-08-10T22:08:23.989Z,6.33
2018-08-10T22:10:52.193Z,9.50
2018-08-10T22:13:25.795Z,6.10
2018-08-10T22:15:59.372Z,3.87
2018-08-10T22:18:33.066Z,3.00
2018-08-10T22:21:01.839Z,6.60
2018-08-10T22:23:30.180Z,3.13
2018-08-10T22:25:59.166Z,5.53
2018-08-10T22:28:27.268Z,5.17
2018-08-10T22:30:55.331Z,4.93
2018-08-10T22:33:23.387Z,6.53
2018-08-10T22:35:51.590Z,7.40
2018-08-10T22:38:19.687Z,2.87
2018-08-10T22:40:47.910Z,5.70
2018-08-10T22:43:16.006Z,3.50
2018-08-10T22:45:44.152Z,3.57
2018-08-10T22:48:12.278Z,2.43
2018-08-10T22:50:40.765Z,2.40
2018-08-10T22:53:08.880Z,3.27
2018-08-10T22:55:37.186Z,4.27
2018-08-10T22:58:05.286Z,4.03
2018-08-10T23:00:33.435Z,6.77
2018-08-10T23:03:01.624Z,3.33
2018-08-10T23:05:29.834Z,3.17
2018-08-10T23:07:58.238Z,3.85
2018-08-10T23:10:26.426Z,4.10
2018-08-10T23:12:54.638Z,3.40
2018-08-10T23:15:22.900Z,1.60
2018-08-10T23:17:51.005Z,2.03
2018-08-10T23:20:19.143Z,2.00
2018-08-10T23:22:47.171Z,2.70
2018-08-10T23:25:15.254Z,2.20
2018-08-10T23:27:44.327Z,1.33
2018-08-10T23:30:13.651Z,2.40
2018-08-10T23:32:41.905Z,1.30
2018-08-10T23:35:10.127Z,2.67
2018-08-10T23:37:38.471Z,1.97
2018-08-10T23:40:10.458Z,2.53
2018-08-10T23:42:38.912Z,4.20
2018-08-10T23:45:08.923Z,1.50
2018-08-10T23:47:37.018Z,1.90
2018-08-10T23:50:07.257Z,1.93
2018-08-10T23:52:35.361Z,2.33
2018-08-10T23:55:03.443Z,1.60
2018-08-10T23:57:31.510Z,2.60
2018-08-10T23:59:59.594Z,2.25
